createdAt,value
2018-07-30T00:01:23.726Z,4.10
2018-07-30T00:06:25.959Z,3.80
2018-07-30T00:11:28.143Z,4.50
2018-07-30T00:16:30.324Z,4.50
2018-07-30T00:21:32.563Z,4.30
2018-07-30T00:26:34.625Z,4.73
2018-07-30T00:31:36.773Z,4.33
2018-07-30T00:36:38.930Z,4.40
2018-07-30T00:41:41.045Z,4.50
2018-07-30T00:46:43.197Z,5.00
2018-07-30T00:51:45.326Z,5.00
2018-07-30T00:56:47.482Z,4.63
2018-07-30T01:01:49.636Z,4.70
2018-07-30T01:06:51.814Z,4.70
2018-07-30T01:11:57.565Z,4.53
2018-07-30T01:16:59.714Z,4.63
2018-07-30T01:22:01.847Z,4.90
2018-07-30T01:27:04.058Z,4.93
2018-07-30T01:32:06.430Z,4.97
2018-07-30T01:37:08.587Z,4.63
2018-07-30T01:42:10.734Z,4.30
2018-07-30T01:47:12.878Z,4.77
2018-07-30T01:52:15.014Z,5.37
2018-07-30T01:57:17.149Z,5.53
2018-07-30T02:02:19.426Z,4.70
2018-07-30T02:07:21.569Z,5.00
2018-07-30T02:12:23.711Z,5.10
2018-07-30T02:17:25.860Z,5.40
2018-07-30T02:22:28.061Z,5.57
2018-07-30T02:27:30.250Z,5.37
2018-07-30T02:32:32.451Z,5.07
2018-07-30T02:37:34.792Z,4.63
2018-07-30T02:42:36.962Z,4.80
2018-07-30T02:47:39.148Z,4.70
2018-07-30T02:52:41.296Z,5.97
2018-07-30T02:57:43.491Z,4.70
2018-07-30T03:02:47.494Z,4.93
2018-07-30T03:07:49.662Z,4.77
2018-07-30T03:12:51.821Z,4.63
2018-07-30T03:17:54.010Z,4.60
2018-07-30T03:22:56.169Z,5.27
2018-07-30T03:27:58.349Z,4.77
2018-07-30T03:33:00.505Z,4.70
2018-07-30T03:38:02.646Z,4.93
2018-07-30T03:43:04.800Z,4.50
2018-07-30T03:48:06.984Z,5.20
2018-07-30T03:53:09.098Z,5.00
2018-07-30T03:58:11.245Z,4.53
2018-07-30T04:03:13.382Z,4.50
2018-07-30T04:08:15.700Z,5.00
2018-07-30T04:13:17.843Z,5.50
2018-07-30T04:18:19.997Z,5.43
2018-07-30T04:23:22.108Z,5.60
2018-07-30T04:28:24.267Z,5.40
2018-07-30T04:33:26.418Z,5.50
2018-07-30T04:38:28.583Z,5.13
2018-07-30T04:43:30.800Z,6.20
2018-07-30T04:48:32.966Z,5.50
2018-07-30T04:53:35.113Z,5.60
2018-07-30T04:58:37.301Z,5.23
2018-07-30T05:03:39.480Z,5.33
2018-07-30T05:08:41.637Z,5.50
2018-07-30T05:13:43.793Z,5.70
2018-07-30T05:18:45.963Z,5.80
2018-07-30T05:23:48.126Z,6.00
2018-07-30T05:28:50.281Z,5.37
2018-07-30T05:33:52.446Z,5.83
2018-07-30T05:38:54.590Z,5.90
2018-07-30T05:43:56.762Z,5.83
2018-07-30T05:48:58.912Z,5.83
2018-07-30T05:54:01.386Z,6.73
2018-07-30T05:59:03.745Z,7.00
2018-07-30T06:04:05.921Z,7.90
2018-07-30T06:09:08.857Z,7.20
2018-07-30T06:14:11.033Z,6.80
2018-07-30T06:19:13.198Z,7.27
2018-07-30T06:24:15.354Z,6.87
2018-07-30T06:29:17.480Z,7.30
2018-07-30T06:34:19.637Z,7.47
2018-07-30T06:39:21.822Z,6.83
2018-07-30T06:44:23.941Z,6.23
2018-07-30T06:49:26.118Z,6.53
2018-07-30T06:54:28.242Z,6.73
2018-07-30T06:59:30.378Z,5.93
2018-07-30T07:04:32.517Z,6.37
2018-07-30T07:09:34.682Z,7.50
2018-07-30T07:14:36.813Z,7.43
2018-07-30T07:19:38.942Z,8.10
2018-07-30T07:24:41.108Z,7.47
2018-07-30T07:29:43.275Z,7.93
2018-07-30T07:34:45.426Z,7.13
2018-07-30T07:39:47.579Z,7.00
2018-07-30T07:44:49.787Z,6.23
2018-07-30T07:49:51.985Z,6.53
2018-07-30T07:54:54.174Z,6.20
2018-07-30T07:59:56.314Z,6.33
2018-07-30T08:04:58.460Z,6.47
2018-07-30T08:10:00.595Z,5.87
2018-07-30T08:15:02.845Z,6.60
2018-07-30T08:20:05.369Z,6.10
2018-07-30T08:25:09.393Z,6.60
2018-07-30T08:30:11.546Z,6.60
2018-07-30T08:35:13.694Z,6.17
2018-07-30T08:40:15.822Z,6.30
2018-07-30T08:45:17.962Z,5.83
2018-07-30T08:50:20.102Z,6.00
2018-07-30T08:55:22.227Z,6.10
2018-07-30T09:00:24.352Z,6.33
2018-07-30T09:05:26.567Z,6.20
2018-07-30T09:10:28.715Z,5.67
2018-07-30T09:15:30.854Z,6.00
2018-07-30T09:20:33.106Z,6.37
2018-07-30T09:25:35.257Z,6.30
2018-07-30T09:30:37.406Z,6.30
2018-07-30T09:35:39.576Z,6.07
2018-07-30T09:40:41.739Z,6.50
2018-07-30T09:45:43.874Z,6.00
2018-07-30T09:50:46.010Z,5.80
2018-07-30T09:55:48.121Z,5.57
2018-07-30T10:00:56.090Z,5.43
2018-07-30T10:05:58.221Z,4.73
2018-07-30T10:11:00.341Z,5.10
2018-07-30T10:16:02.501Z,5.20
2018-07-30T10:21:04.669Z,4.77
2018-07-30T10:26:06.797Z,4.03
2018-07-30T10:31:08.953Z,4.00
2018-07-30T10:36:11.109Z,4.53
2018-07-30T10:41:13.241Z,4.23
2018-07-30T10:46:15.399Z,4.30
2018-07-30T10:51:17.486Z,3.23
2018-07-30T10:56:19.634Z,3.80
2018-07-30T11:01:21.774Z,4.00
2018-07-30T11:06:23.913Z,4.33
2018-07-30T11:11:26.034Z,3.97
2018-07-30T11:16:28.157Z,3.60
2018-07-30T11:21:30.307Z,4.27
2018-07-30T11:26:32.436Z,3.70
2018-07-30T11:31:34.566Z,3.80
2018-07-30T11:36:36.718Z,3.63
2018-07-30T11:41:38.846Z,4.37
2018-07-30T11:46:40.973Z,4.13
2018-07-30T11:51:43.133Z,5.07
2018-07-30T11:56:45.258Z,4.23
2018-07-30T12:01:47.442Z,3.50
2018-07-30T12:06:49.581Z,3.33
2018-07-30T12:11:51.740Z,4.00
2018-07-30T12:16:53.895Z,4.00
2018-07-30T12:21:56.184Z,3.80
2018-07-30T12:26:58.302Z,3.80
2018-07-30T12:32:00.803Z,4.07
2018-07-30T12:37:02.977Z,3.80
2018-07-30T12:42:05.162Z,3.67
2018-07-30T12:47:07.321Z,3.20
2018-07-30T12:52:09.489Z,3.90
2018-07-30T12:57:11.656Z,3.50
2018-07-30T13:02:13.782Z,3.83
2018-07-30T13:07:15.908Z,3.70
2018-07-30T13:12:18.073Z,3.77
2018-07-30T13:17:20.226Z,3.60
2018-07-30T13:22:22.392Z,4.50
2018-07-30T13:27:24.541Z,3.73
2018-07-30T13:32:26.770Z,4.13
2018-07-30T13:37:28.900Z,4.00
2018-07-30T13:42:31.064Z,3.83
2018-07-30T13:47:33.254Z,4.03
2018-07-30T13:52:35.389Z,4.10
2018-07-30T13:57:37.560Z,3.87
2018-07-30T14:02:40.022Z,4.20
2018-07-30T14:07:42.166Z,4.40
2018-07-30T14:12:44.329Z,3.97
2018-07-30T14:17:46.446Z,4.57
2018-07-30T14:22:48.577Z,4.00
2018-07-30T14:27:50.730Z,4.40
2018-07-30T14:32:52.869Z,4.00
2018-07-30T14:37:54.993Z,4.03
2018-07-30T14:42:57.137Z,4.10
2018-07-30T14:47:59.293Z,4.30
2018-07-30T14:53:01.473Z,4.13
2018-07-30T14:58:03.660Z,4.43
2018-07-30T15:03:05.806Z,3.83
2018-07-30T15:08:07.929Z,3.67
2018-07-30T15:13:10.076Z,4.00
2018-07-30T15:18:12.238Z,4.00
2018-07-30T15:23:14.372Z,5.07
2018-07-30T15:28:16.545Z,3.97
2018-07-30T15:33:18.678Z,4.00
2018-07-30T15:38:21.168Z,3.80
2018-07-30T15:43:23.309Z,3.97
2018-07-30T15:48:25.433Z,4.13
2018-07-30T15:53:27.558Z,3.87
2018-07-30T15:58:29.698Z,4.07
2018-07-30T16:03:31.917Z,4.20
2018-07-30T16:08:34.102Z,3.70
2018-07-30T16:13:36.249Z,4.23
2018-07-30T16:18:38.449Z,4.00
2018-07-30T16:23:40.606Z,4.20
2018-07-30T16:28:42.770Z,3.83
2018-07-30T16:33:44.915Z,3.77
2018-07-30T16:38:47.074Z,5.70
2018-07-30T16:43:49.253Z,4.10
2018-07-30T16:48:51.502Z,4.00
2018-07-30T16:53:53.677Z,3.93
2018-07-30T16:58:55.834Z,4.00
2018-07-30T17:03:58.037Z,4.30
2018-07-30T17:09:00.187Z,4.10
2018-07-30T17:14:02.370Z,4.10
2018-07-30T17:19:04.642Z,3.60
2018-07-30T17:24:06.849Z,4.30
2018-07-30T17:29:09.009Z,3.80
2018-07-30T17:34:11.185Z,3.80
2018-07-30T17:39:13.678Z,3.63
2018-07-30T17:44:15.805Z,4.40
2018-07-30T17:49:17.980Z,3.90
2018-07-30T17:54:20.134Z,4.10
2018-07-30T17:59:22.299Z,4.40
2018-07-30T18:04:24.489Z,4.30
2018-07-30T18:09:26.844Z,4.70
2018-07-30T18:14:29.003Z,4.20
2018-07-30T18:19:31.198Z,4.00
2018-07-30T18:24:33.441Z,4.23
2018-07-30T18:29:35.625Z,3.80
2018-07-30T18:34:37.809Z,4.67
2018-07-30T18:39:39.992Z,4.80
2018-07-30T18:44:42.158Z,4.60
2018-07-30T18:49:44.323Z,4.73
2018-07-30T18:54:46.490Z,4.23
2018-07-30T18:59:48.660Z,4.50
2018-07-30T19:04:50.839Z,4.53
2018-07-30T19:09:53.340Z,4.27
2018-07-30T19:14:55.555Z,4.43
2018-07-30T19:19:57.697Z,4.30
2018-07-30T19:24:59.889Z,4.20
2018-07-30T19:30:02.076Z,4.70
2018-07-30T19:35:04.293Z,4.00
2018-07-30T19:40:06.492Z,4.17
2018-07-30T19:45:08.678Z,4.37
2018-07-30T19:50:10.838Z,3.90
2018-07-30T19:55:13.014Z,4.57
2018-07-30T20:06:21.334Z,4.00
2018-07-30T20:11:23.537Z,4.10
2018-07-30T20:16:25.713Z,4.27
2018-07-30T20:21:27.874Z,4.33
2018-07-30T20:26:30.230Z,4.23
2018-07-30T20:31:32.380Z,4.10
2018-07-30T20:36:34.541Z,4.40
2018-07-30T20:41:36.666Z,4.30
2018-07-30T20:46:38.810Z,4.07
2018-07-30T20:51:40.963Z,4.60
2018-07-30T20:56:43.109Z,4.60
2018-07-30T21:01:45.261Z,4.27
2018-07-30T21:06:47.412Z,4.37
2018-07-30T21:11:49.621Z,4.40
2018-07-30T21:16:52.569Z,4.43
2018-07-30T21:21:54.689Z,4.63
2018-07-30T21:26:56.833Z,4.63
2018-07-30T21:31:58.961Z,5.20
2018-07-30T21:37:01.110Z,5.20
2018-07-30T21:42:03.258Z,4.83
2018-07-30T21:47:05.407Z,4.70
2018-07-30T21:52:07.558Z,5.20
2018-07-30T21:57:09.991Z,4.70
2018-07-30T22:02:12.162Z,4.90
2018-07-30T22:07:14.392Z,4.47
2018-07-30T22:12:16.543Z,4.80
2018-07-30T22:17:18.698Z,4.73
2018-07-30T22:22:20.844Z,4.17
2018-07-30T22:27:23.085Z,5.10
2018-07-30T22:32:25.259Z,4.43
2018-07-30T22:37:27.439Z,4.70
2018-07-30T22:42:29.598Z,4.40
2018-07-30T22:47:31.750Z,5.20
2018-07-30T22:52:33.913Z,4.27
2018-07-30T22:57:36.093Z,4.70
2018-07-30T23:02:38.290Z,4.40
2018-07-30T23:07:40.453Z,4.60
2018-07-30T23:12:42.626Z,4.30
2018-07-30T23:17:44.808Z,4.67
2018-07-30T23:22:46.991Z,4.63
2018-07-30T23:27:49.140Z,4.43
2018-07-30T23:32:51.325Z,4.50
2018-07-30T23:37:53.485Z,4.53
2018-07-30T23:42:55.641Z,4.70
2018-07-30T23:47:57.793Z,4.70
2018-07-30T23:52:59.965Z,4.63
2018-07-30T23:58:02.145Z,5.10
